Time;durP1;ratioP1;P1;durP2;ratioP2;P2;SDS_P1;SDS_P2;PMS_P1;PMS_P2;Temp;Humidity;BMP_temperature;BMP_pressure;BME280_temperature;BME280_humidity;BME280_pressure;Samples;Min_cycle;Max_cycle;Signal;HPM_P1;HPM_P2
2024/01/16 00:00:02;;;;;;;8.73;2.47;;;;;;;-2.53;100.00;100260.88;6120027;23;20002;-91
2024/01/16 00:02:27;;;;;;;8.63;2.60;;;;;;;-2.51;100.00;100264.19;6121337;23;20001;-91
2024/01/16 00:04:52;;;;;;;5.40;2.58;;;;;;;-2.48;100.00;100249.88;6121003;23;20059;-92
2024/01/16 00:07:18;;;;;;;4.88;2.28;;;;;;;-2.49;100.00;100244.81;6119398;23;20002;-91
2024/01/16 00:09:43;;;;;;;8.68;3.13;;;;;;;-2.57;100.00;100247.41;6121327;23;20325;-93
2024/01/16 00:12:09;;;;;;;7.18;2.42;;;;;;;-2.68;100.00;100242.44;6121872;23;20006;-92
2024/01/16 00:14:36;;;;;;;4.00;2.50;;;;;;;-2.80;100.00;100252.63;6121513;23;20029;-92
2024/01/16 00:17:02;;;;;;;6.22;2.95;;;;;;;-2.64;100.00;100239.03;6121692;23;20038;-92
2024/01/16 00:19:27;;;;;;;12.13;2.58;;;;;;;-2.70;98.94;100244.13;6120631;23;20009;-92
2024/01/16 00:21:52;;;;;;;4.72;2.28;;;;;;;-2.54;98.21;100238.97;6122073;23;20009;-94
2024/01/16 00:24:18;;;;;;;7.72;2.17;;;;;;;-2.52;98.35;100238.09;6120563;23;20017;-93
2024/01/16 00:26:43;;;;;;;4.40;1.95;;;;;;;-2.63;99.53;100235.66;6120586;23;20010;-91
2024/01/16 00:29:12;;;;;;;4.45;2.00;;;;;;;-2.66;100.00;100234.81;6120254;23;20009;-91
2024/01/16 00:31:38;;;;;;;3.67;1.73;;;;;;;-2.64;100.00;100228.91;6120423;23;20014;-93
2024/01/16 00:34:04;;;;;;;6.32;1.90;;;;;;;-2.60;100.00;100235.63;6120345;23;20074;-93
2024/01/16 00:36:29;;;;;;;10.73;2.30;;;;;;;-2.62;100.00;100224.69;6121813;23;20006;-92
2024/01/16 00:38:55;;;;;;;3.22;1.73;;;;;;;-2.65;100.00;100226.41;6120314;23;20017;-93
2024/01/16 00:41:20;;;;;;;4.63;2.13;;;;;;;-2.65;100.00;100227.25;6122376;23;20417;-92
2024/01/16 00:43:46;;;;;;;7.53;2.85;;;;;;;-2.66;100.00;100225.59;6120110;23;20088;-91
2024/01/16 00:46:11;;;;;;;7.00;3.35;;;;;;;-2.73;100.00;100229.00;6120736;23;20006;-93
2024/01/16 00:48:36;;;;;;;4.50;1.80;;;;;;;-2.65;100.00;100222.19;6121776;23;20013;-92
2024/01/16 00:51:02;;;;;;;5.82;2.00;;;;;;;-2.53;100.00;100225.50;6121579;23;20002;-92
2024/01/16 00:53:27;;;;;;;7.07;2.47;;;;;;;-2.58;100.00;100228.88;6120095;23;20025;-91
2024/01/16 00:55:54;;;;;;;6.07;2.28;;;;;;;-2.52;100.00;100229.69;6119890;23;20425;-92
2024/01/16 00:58:21;;;;;;;3.42;2.22;;;;;;;-2.43;100.00;100217.81;6121520;23;20006;-92
2024/01/16 01:00:46;;;;;;;7.47;2.80;;;;;;;-2.33;100.00;100222.81;6122942;23;20006;-92
2024/01/16 01:03:11;;;;;;;9.20;2.88;;;;;;;-2.44;100.00;100222.88;6120891;23;20009;-92
2024/01/16 01:05:37;;;;;;;5.80;2.55;;;;;;;-2.37;100.00;100221.97;6121316;23;20014;-93
2024/01/16 01:08:03;;;;;;;3.47;2.00;;;;;;;-2.32;100.00;100227.84;6121626;23;20002;-90
2024/01/16 01:10:28;;;;;;;5.00;2.30;;;;;;;-2.33;100.00;100213.53;6121610;23;20021;-90
2024/01/16 01:12:54;;;;;;;5.05;2.75;;;;;;;-2.30;100.00;100228.66;6121264;23;20424;-93
2024/01/16 01:15:22;;;;;;;5.57;2.20;;;;;;;-2.25;100.00;100226.09;6121038;23;20045;-90
2024/01/16 01:17:49;;;;;;;6.68;2.30;;;;;;;-2.21;100.00;100228.59;6121982;23;20006;-93
2024/01/16 01:20:15;;;;;;;3.42;2.20;;;;;;;-2.19;100.00;100231.94;6121347;23;20085;-92
2024/01/16 01:22:40;;;;;;;3.75;2.40;;;;;;;-2.18;100.00;100228.56;6119968;23;20037;-92
2024/01/16 01:25:06;;;;;;;6.28;2.60;;;;;;;-2.16;100.00;100226.03;6120116;23;20008;-90
2024/01/16 01:27:32;;;;;;;8.00;3.00;;;;;;;-2.11;100.00;100224.28;6120394;23;20029;-92
2024/01/16 01:29:58;;;;;;;5.15;2.60;;;;;;;-2.02;100.00;100215.81;6120523;23;20002;-90
2024/01/16 01:32:23;;;;;;;5.25;2.97;;;;;;;-1.97;100.00;100224.19;6120102;23;20006;-93
2024/01/16 01:34:48;;;;;;;7.07;2.72;;;;;;;-1.95;100.00;100222.47;6120381;23;20013;-92
2024/01/16 01:37:14;;;;;;;5.47;2.72;;;;;;;-1.97;100.00;100214.06;6121965;23;20437;-92
2024/01/16 01:39:40;;;;;;;8.35;2.58;;;;;;;-2.00;100.00;100219.13;6120420;23;20006;-92
2024/01/16 01:42:05;;;;;;;7.95;3.08;;;;;;;-1.99;100.00;100208.19;6120693;23;20010;-93
2024/01/16 01:44:30;;;;;;;8.13;2.90;;;;;;;-1.89;100.00;100216.50;6120402;23;20392;-93
2024/01/16 01:46:56;;;;;;;6.35;2.80;;;;;;;-1.94;100.00;100209.78;6120666;23;20311;-92
2024/01/16 01:49:22;;;;;;;5.18;2.80;;;;;;;-2.03;100.00;100207.34;6120338;23;20017;-93
2024/01/16 01:51:48;;;;;;;6.82;2.55;;;;;;;-2.02;100.00;100203.16;6121056;23;20363;-92
2024/01/16 01:54:15;;;;;;;7.95;2.65;;;;;;;-2.10;100.00;100212.47;6120571;23;20002;-93
2024/01/16 01:56:44;;;;;;;5.32;2.47;;;;;;;-2.09;100.00;100209.94;6122259;23;20107;-93
2024/01/16 01:59:09;;;;;;;6.22;2.60;;;;;;;-2.13;100.00;100207.47;6120212;23;20067;-92
2024/01/16 02:01:35;;;;;;;6.38;2.60;;;;;;;-2.19;100.00;100201.63;6120152;23;20010;-92
2024/01/16 02:04:01;;;;;;;8.30;2.63;;;;;;;-2.19;100.00;100196.56;6120226;23;20346;-93
2024/01/16 02:06:27;;;;;;;10.65;2.72;;;;;;;-2.31;100.00;100199.19;6121772;23;20417;-92
2024/01/16 02:08:53;;;;;;;4.55;2.38;;;;;;;-2.32;100.00;100199.19;6119956;23;20090;-93
2024/01/16 02:11:18;;;;;;;7.75;2.60;;;;;;;-2.39;100.00;100193.34;6121609;23;20033;-92
2024/01/16 02:13:44;;;;;;;7.97;2.67;;;;;;;-2.36;100.00;100188.28;6121834;23;20013;-92
2024/01/16 02:16:22;;;;;;;6.57;2.58;;;;;;;-2.40;100.00;100186.63;6121579;23;20017;-92
2024/01/16 02:18:48;;;;;;;3.70;1.88;;;;;;;-2.40;100.00;100176.53;6120318;23;20063;-91
2024/01/16 02:21:27;;;;;;;7.63;2.88;;;;;;;-2.37;100.00;100181.53;6120085;23;20373;-92
2024/01/16 02:23:53;;;;;;;3.97;2.20;;;;;;;-2.38;100.00;100174.81;6120164;23;20426;-93
2024/01/16 02:26:19;;;;;;;4.05;2.13;;;;;;;-2.37;100.00;100171.44;6121645;23;20020;-92
2024/01/16 02:28:45;;;;;;;6.63;2.28;;;;;;;-2.39;100.00;100168.06;6120041;23;20029;-92
2024/01/16 02:31:10;;;;;;;10.50;2.45;;;;;;;-2.34;100.00;100166.38;6121459;23;20009;-91
2024/01/16 02:33:36;;;;;;;4.28;2.72;;;;;;;-2.47;100.00;100165.63;6120805;23;19998;-91
2024/01/16 02:36:01;;;;;;;3.80;2.08;;;;;;;-2.40;100.00;100176.53;6121825;23;20025;-92
2024/01/16 02:38:26;;;;;;;4.93;2.45;;;;;;;-2.33;100.00;100177.31;6122162;23;20006;-92
2024/01/16 02:40:52;;;;;;;6.13;2.05;;;;;;;-2.44;100.00;100177.38;6120727;23;20016;-91
2024/01/16 02:43:17;;;;;;;3.90;2.20;;;;;;;-2.46;100.00;100176.59;6120489;23;20367;-90
2024/01/16 02:45:43;;;;;;;4.55;2.22;;;;;;;-2.54;100.00;100178.31;6121739;23;20032;-91
2024/01/16 02:48:09;;;;;;;9.88;2.67;;;;;;;-2.59;100.00;100175.81;6122235;23;20002;-92
2024/01/16 02:50:34;;;;;;;4.93;2.05;;;;;;;-2.59;100.00;100179.19;6122123;23;20010;-92
2024/01/16 02:52:59;;;;;;;5.07;2.25;;;;;;;-2.70;100.00;100160.78;6122022;23;20067;-92
2024/01/16 02:55:25;;;;;;;5.20;2.40;;;;;;;-2.66;100.00;100148.94;6121138;23;20085;-91
2024/01/16 02:57:50;;;;;;;5.53;2.00;;;;;;;-2.63;100.00;100154.00;6122472;23;20009;-91
2024/01/16 03:00:17;;;;;;;6.47;2.28;;;;;;;-2.61;100.00;100144.69;6120548;23;20247;-91
2024/01/16 03:02:43;;;;;;;5.53;2.20;;;;;;;-2.61;100.00;100150.59;6120672;23;20029;-92
2024/01/16 03:05:09;;;;;;;8.35;2.22;;;;;;;-2.56;100.00;100149.69;6122530;23;20089;-92
2024/01/16 03:07:35;;;;;;;6.70;2.65;;;;;;;-2.52;100.00;100151.34;6122194;23;20002;-91
2024/01/16 03:10:00;;;;;;;2.22;1.60;;;;;;;-2.44;100.00;100159.69;6122068;23;20037;-93
2024/01/16 03:12:26;;;;;;;3.88;1.88;;;;;;;-2.51;100.00;100158.94;6120309;23;20484;-92
2024/01/16 03:14:53;;;;;;;4.68;2.63;;;;;;;-2.55;100.00;100153.91;6121951;23;20147;-93
2024/01/16 03:17:18;;;;;;;11.68;3.22;;;;;;;-2.62;100.00;100153.97;6120605;23;20028;-93
2024/01/16 03:19:44;;;;;;;6.80;2.85;;;;;;;-2.55;100.00;100156.44;6121213;23;20365;-91
2024/01/16 03:22:09;;;;;;;7.60;2.60;;;;;;;-2.55;100.00;100148.88;6121715;23;20107;-90
2024/01/16 03:24:35;;;;;;;6.18;3.10;;;;;;;-2.55;100.00;100151.38;6119408;23;20020;-90
2024/01/16 03:27:01;;;;;;;5.18;2.58;;;;;;;-2.48;100.00;100150.50;6121822;23;20026;-92
2024/01/16 03:29:26;;;;;;;7.03;2.83;;;;;;;-2.49;100.00;100144.56;6122193;23;19998;-91
2024/01/16 03:31:51;;;;;;;7.90;3.30;;;;;;;-2.43;100.00;100144.53;6121972;23;20002;-90
2024/01/16 03:34:17;;;;;;;5.30;2.03;;;;;;;-2.47;100.00;100144.56;6121987;23;20378;-91
2024/01/16 03:36:42;;;;;;;10.52;2.53;;;;;;;-2.44;100.00;100135.28;6120361;23;20364;-90
2024/01/16 03:39:08;;;;;;;5.88;1.70;;;;;;;-2.41;100.00;100136.94;6121649;23;20028;-92
2024/01/16 03:41:34;;;;;;;2.97;1.60;;;;;;;-2.46;100.00;100131.09;6121803;23;20013;-92
2024/01/16 03:43:59;;;;;;;4.05;1.55;;;;;;;-2.44;100.00;100129.38;6121055;23;20006;-90
2024/01/16 03:46:24;;;;;;;6.32;2.20;;;;;;;-2.45;100.00;100127.72;6121268;23;20333;-93
2024/01/16 03:48:50;;;;;;;4.85;1.55;;;;;;;-2.43;100.00;100124.31;6121085;23;20010;-91
2024/01/16 03:51:24;;;;;;;4.25;1.65;;;;;;;-2.49;100.00;100124.34;5089484;27;20394;-93
2024/01/16 03:53:49;;;;;;;2.28;1.50;;;;;;;-2.52;100.00;100116.81;5087235;28;20046;-91
2024/01/16 03:56:16;;;;;;;4.75;2.03;;;;;;;-2.50;100.00;100119.34;5073371;28;20108;-92
2024/01/16 03:58:41;;;;;;;3.83;1.80;;;;;;;-2.44;100.00;100121.78;5056545;28;20013;-92
2024/01/16 04:01:07;;;;;;;6.38;2.03;;;;;;;-2.36;100.00;100127.63;5049418;28;20403;-93
2024/01/16 04:03:32;;;;;;;8.02;2.00;;;;;;;-2.45;100.00;100122.66;5048013;28;20052;-92
2024/01/16 04:05:57;;;;;;;4.75;1.80;;;;;;;-2.50;100.00;100114.28;5049623;28;20295;-92
2024/01/16 04:08:23;;;;;;;3.47;1.60;;;;;;;-2.51;100.00;100117.66;5049346;28;20033;-92
2024/01/16 04:10:48;;;;;;;3.83;1.55;;;;;;;-2.40;100.00;100105.75;5053007;28;20033;-94
2024/01/16 04:13:14;;;;;;;4.00;2.20;;;;;;;-2.46;100.00;100111.72;5066700;28;20449;-93
2024/01/16 04:15:39;;;;;;;6.65;1.27;;;;;;;-2.48;100.00;100102.47;5065688;28;20036;-92
2024/01/16 04:18:05;;;;;;;4.20;1.85;;;;;;;-2.40;100.00;100103.22;5057915;28;20494;-92
2024/01/16 04:20:31;;;;;;;4.10;1.50;;;;;;;-2.46;100.00;100090.66;5069898;28;20024;-94
2024/01/16 04:22:57;;;;;;;3.67;1.63;;;;;;;-2.58;100.00;100089.09;5070046;28;20017;-93
2024/01/16 04:25:22;;;;;;;4.03;1.55;;;;;;;-2.60;100.00;100084.03;5069098;28;20032;-92
2024/01/16 04:27:48;;;;;;;4.50;2.30;;;;;;;-2.50;100.00;100089.84;5071379;28;20035;-90
2024/01/16 04:30:13;;;;;;;3.08;1.42;;;;;;;-2.60;100.00;100084.03;5074848;28;20076;-92
2024/01/16 04:32:39;;;;;;;5.10;1.75;;;;;;;-2.61;100.00;100087.44;5073391;28;20021;-92
2024/01/16 04:35:04;;;;;;;4.38;1.58;;;;;;;-2.67;100.00;100074.84;5073667;28;20455;-91
2024/01/16 04:37:29;;;;;;;4.47;1.63;;;;;;;-2.60;100.00;100068.88;5073710;28;20495;-89
2024/01/16 04:39:55;;;;;;;5.03;1.50;;;;;;;-2.64;100.00;100072.28;5061827;28;20468;-93
2024/01/16 04:42:20;;;;;;;5.38;1.80;;;;;;;-2.66;100.00;100063.03;5073168;28;20024;-91
2024/01/16 04:44:45;;;;;;;3.47;1.58;;;;;;;-2.64;100.00;100062.19;5060926;28;20071;-90
2024/01/16 04:47:11;;;;;;;3.72;1.67;;;;;;;-2.59;100.00;100062.97;5052189;28;20025;-91
2024/01/16 04:49:37;;;;;;;3.00;1.83;;;;;;;-2.60;100.00;100056.25;5052277;28;20108;-92
2024/01/16 04:52:03;;;;;;;6.18;1.50;;;;;;;-2.58;100.00;100057.09;5054216;28;20083;-91
2024/01/16 04:54:28;;;;;;;4.25;1.50;;;;;;;-2.67;100.00;100046.22;5054497;28;20391;-92
2024/01/16 04:56:53;;;;;;;3.83;1.63;;;;;;;-2.65;100.00;100040.31;5067420;28;20032;-92
2024/01/16 04:59:19;;;;;;;3.35;1.60;;;;;;;-2.54;100.00;100049.47;5074824;28;20070;-91
2024/01/16 05:01:44;;;;;;;6.80;1.98;;;;;;;-2.62;100.00;100035.22;5065892;28;20021;-91
2024/01/16 05:04:10;;;;;;;5.20;1.58;;;;;;;-2.69;100.00;100036.13;5059769;28;20518;-91
2024/01/16 05:06:35;;;;;;;2.58;1.55;;;;;;;-2.68;100.00;100036.97;5059634;28;20025;-94
2024/01/16 05:09:01;;;;;;;8.95;1.80;;;;;;;-2.64;100.00;100036.09;5057525;28;20025;-92
2024/01/16 05:11:26;;;;;;;3.83;1.92;;;;;;;-2.59;100.00;100032.66;5047671;28;20029;-93
2024/01/16 05:13:57;;;;;;;6.78;2.22;;;;;;;-2.52;100.00;100030.06;5050319;28;20029;-92
2024/01/16 05:16:26;;;;;;;3.05;1.30;;;;;;;-2.48;100.00;100022.44;5038893;28;20396;-92
2024/01/16 05:18:51;;;;;;;2.13;1.13;;;;;;;-2.50;100.00;100020.78;5035869;28;20022;-92
2024/01/16 05:21:17;;;;;;;7.90;1.60;;;;;;;-2.43;100.00;100017.34;5036169;28;20026;-92
2024/01/16 05:23:43;;;;;;;2.83;1.20;;;;;;;-2.33;100.00;100015.56;5036633;28;20037;-93
2024/01/16 05:26:08;;;;;;;4.93;2.13;;;;;;;-2.30;100.00;100012.97;5035553;28;20076;-93
2024/01/16 05:28:33;;;;;;;2.55;1.50;;;;;;;-2.32;100.00;100010.47;5035113;28;20387;-93
2024/01/16 05:30:59;;;;;;;2.60;1.30;;;;;;;-2.31;100.00;99998.69;5035239;28;20036;-92
2024/01/16 05:33:25;;;;;;;3.65;1.30;;;;;;;-2.24;100.00;99990.19;5034958;28;20550;-94
2024/01/16 05:35:50;;;;;;;5.80;1.55;;;;;;;-2.21;100.00;99995.19;5053556;28;20035;-94
2024/01/16 05:38:16;;;;;;;2.13;1.30;;;;;;;-2.21;100.00;99990.97;5052675;28;20523;-94
2024/01/16 05:40:41;;;;;;;3.75;1.17;;;;;;;-2.19;100.00;99994.31;5051683;28;20075;-93
2024/01/16 05:43:07;;;;;;;2.65;1.52;;;;;;;-2.21;100.00;99990.97;5054477;28;20037;-94
2024/01/16 05:45:32;;;;;;;3.42;1.58;;;;;;;-2.14;100.00;99990.91;5052093;28;20154;-93
2024/01/16 05:47:58;;;;;;;5.60;1.33;;;;;;;-2.09;100.00;99997.56;5053050;28;20047;-93
2024/01/16 05:50:23;;;;;;;2.05;1.00;;;;;;;-2.05;100.00;99990.75;5052640;28;20126;-92
2024/01/16 05:52:48;;;;;;;2.75;1.30;;;;;;;-1.96;100.00;99988.09;5054580;28;20485;-91
2024/01/16 05:55:14;;;;;;;2.38;1.50;;;;;;;-1.95;100.00;99987.28;5053499;28;20411;-92
2024/01/16 05:57:39;;;;;;;4.80;1.52;;;;;;;-2.02;100.00;99985.69;5054237;28;20112;-93
2024/01/16 06:00:05;;;;;;;4.70;1.58;;;;;;;-2.00;100.00;99989.00;5054479;28;20029;-93
2024/01/16 06:02:31;;;;;;;4.55;1.55;;;;;;;-1.94;100.00;99981.34;5052156;28;20025;-93
2024/01/16 06:04:56;;;;;;;2.28;1.20;;;;;;;-1.86;100.00;99987.13;5042084;28;20514;-92
2024/01/16 06:07:22;;;;;;;6.97;1.27;;;;;;;-1.77;100.00;99988.69;5034015;28;20029;-92
2024/01/16 06:09:47;;;;;;;6.75;1.67;;;;;;;-1.78;100.00;99980.28;5034026;28;20056;-92
2024/01/16 06:12:13;;;;;;;3.75;1.48;;;;;;;-1.75;100.00;99987.81;5045626;28;20029;-92
2024/01/16 06:14:38;;;;;;;3.17;1.10;;;;;;;-1.64;100.00;99986.81;5042060;28;20408;-93
2024/01/16 06:17:05;;;;;;;2.97;1.50;;;;;;;-1.60;100.00;99989.28;5037328;28;20029;-92
2024/01/16 06:19:32;;;;;;;1.88;0.90;;;;;;;-1.66;100.00;99983.47;5046255;28;20021;-92
2024/01/16 06:21:58;;;;;;;3.55;0.93;;;;;;;-1.60;100.00;99988.47;5032573;28;20029;-92
2024/01/16 06:24:23;;;;;;;3.25;1.05;;;;;;;-1.57;100.00;99993.47;5032711;28;20053;-93
2024/01/16 06:26:48;;;;;;;3.65;1.20;;;;;;;-1.57;100.00;99985.88;5065308;28;20029;-92
2024/01/16 06:29:14;;;;;;;3.92;1.38;;;;;;;-1.63;100.00;99993.56;5033673;28;20025;-92
2024/01/16 06:31:39;;;;;;;3.55;2.25;;;;;;;-1.52;100.00;99987.47;5035540;28;20032;-93
2024/01/16 06:34:04;;;;;;;3.55;1.20;;;;;;;-1.52;100.00;99987.47;5045329;28;20029;-93
2024/01/16 06:36:30;;;;;;;1.35;0.98;;;;;;;-1.52;100.00;99984.09;5033737;28;20025;-93
2024/01/16 06:38:55;;;;;;;2.92;1.05;;;;;;;-1.49;100.00;99986.59;5042771;28;20063;-92
2024/01/16 06:41:21;;;;;;;3.75;1.13;;;;;;;-1.39;100.00;99993.19;5035366;28;20030;-92
2024/01/16 06:43:46;;;;;;;1.83;1.42;;;;;;;-1.31;100.00;99986.31;5038257;28;20020;-92
2024/01/16 06:46:11;;;;;;;5.15;1.38;;;;;;;-1.33;100.00;99980.44;5053129;28;20491;-94
2024/01/16 06:48:38;;;;;;;2.10;1.45;;;;;;;-1.22;100.00;99974.34;5052276;28;20024;-92
2024/01/16 06:51:04;;;;;;;2.45;1.52;;;;;;;-1.17;100.00;99972.56;5053736;28;20422;-92
2024/01/16 06:53:29;;;;;;;5.35;1.60;;;;;;;-1.18;100.00;99970.91;5053167;28;20643;-92
2024/01/16 06:55:55;;;;;;;2.55;1.45;;;;;;;-1.30;100.00;99967.72;5047159;28;20464;-93
2024/01/16 06:58:20;;;;;;;3.22;1.30;;;;;;;-1.16;100.00;99979.31;5033152;28;20105;-92
2024/01/16 07:00:47;;;;;;;3.33;1.20;;;;;;;-1.16;100.00;99976.78;5031886;28;20030;-93
2024/01/16 07:03:12;;;;;;;5.57;1.45;;;;;;;-1.13;100.00;99974.19;5033083;28;20033;-91
2024/01/16 07:05:38;;;;;;;3.13;1.00;;;;;;;-1.02;100.00;99967.25;5031729;28;20025;-92
2024/01/16 07:08:03;;;;;;;5.65;1.17;;;;;;;-1.06;100.00;99970.69;5031059;28;20112;-91
2024/01/16 07:10:29;;;;;;;3.10;1.30;;;;;;;-1.05;100.00;99964.75;5031833;28;20037;-90
2024/01/16 07:12:55;;;;;;;3.40;1.40;;;;;;;-1.05;100.00;99967.28;5043953;28;20071;-90
2024/01/16 07:15:20;;;;;;;4.00;1.25;;;;;;;-1.08;100.00;99962.28;5050792;28;20360;-89
2024/01/16 07:17:46;;;;;;;2.10;1.10;;;;;;;-1.05;100.00;99969.81;5034589;28;20025;-90
2024/01/16 07:20:12;;;;;;;2.40;1.25;;;;;;;-1.00;100.00;99968.06;5048510;28;20035;-94
2024/01/16 07:22:39;;;;;;;1.83;1.20;;;;;;;-0.96;100.00;99957.00;5030886;28;20017;-91
2024/01/16 07:25:05;;;;;;;2.15;1.67;;;;;;;-0.92;100.00;99965.41;5043234;28;20433;-93
2024/01/16 07:27:31;;;;;;;3.03;1.60;;;;;;;-0.90;100.00;99961.97;5039493;28;20431;-91
2024/01/16 07:29:56;;;;;;;4.72;1.45;;;;;;;-0.89;100.00;99958.56;5031626;28;20048;-91
2024/01/16 07:32:22;;;;;;;3.47;1.42;;;;;;;-0.86;100.00;99945.84;5032396;28;20029;-91
2024/01/16 07:34:47;;;;;;;4.13;1.40;;;;;;;-0.82;100.00;99948.34;5048910;28;20530;-93
2024/01/16 07:37:13;;;;;;;4.63;1.42;;;;;;;-0.82;100.00;99943.25;5051343;28;20033;-90
2024/01/16 07:39:38;;;;;;;2.40;1.20;;;;;;;-0.80;100.00;99941.53;5049992;28;20036;-93
2024/01/16 07:42:04;;;;;;;6.55;1.63;;;;;;;-0.78;100.00;99935.59;5042115;28;20095;-91
2024/01/16 07:44:29;;;;;;;2.22;1.23;;;;;;;-0.77;100.00;99937.22;5032546;28;20120;-93
2024/01/16 07:46:55;;;;;;;1.88;1.10;;;;;;;-0.80;100.00;99932.25;5034583;28;20111;-92
2024/01/16 07:49:20;;;;;;;3.13;1.20;;;;;;;-0.78;100.00;99927.13;5050215;28;20116;-92
2024/01/16 07:51:45;;;;;;;3.85;1.20;;;;;;;-0.73;100.00;99925.34;5051723;28;20115;-93
2024/01/16 07:54:13;;;;;;;2.85;1.40;;;;;;;-0.68;100.00;99926.09;5042180;28;20057;-92
2024/01/16 07:56:38;;;;;;;2.13;1.25;;;;;;;-0.67;100.00;99922.69;5030339;28;20152;-92
2024/01/16 07:59:04;;;;;;;8.77;1.63;;;;;;;-0.68;100.00;99916.78;5031684;28;20067;-92
2024/01/16 08:01:29;;;;;;;6.63;1.08;;;;;;;-0.69;100.00;99926.94;5031741;28;20041;-92
2024/01/16 08:03:55;;;;;;;5.18;1.27;;;;;;;-0.78;100.00;99919.53;5042067;28;20155;-93
2024/01/16 08:06:21;;;;;;;2.95;1.13;;;;;;;-0.87;100.00;99921.38;5032939;28;20025;-91
2024/01/16 08:08:47;;;;;;;6.68;1.58;;;;;;;-0.76;100.00;99925.41;5048445;28;20037;-92
2024/01/16 08:11:12;;;;;;;3.03;1.40;;;;;;;-0.77;100.00;99924.56;5047570;28;20074;-88
2024/01/16 08:13:38;;;;;;;2.63;1.10;;;;;;;-0.78;100.00;99916.97;5048707;28;20148;-90
2024/01/16 08:16:04;;;;;;;4.38;1.38;;;;;;;-0.74;100.00;99906.75;5049903;28;20040;-90
2024/01/16 08:18:31;;;;;;;2.53;1.02;;;;;;;-0.83;100.00;99926.38;5044052;28;20025;-89
2024/01/16 08:20:57;;;;;;;3.08;0.77;;;;;;;-0.96;100.00;99921.53;5044423;28;20026;-92
2024/01/16 08:23:22;;;;;;;1.90;1.10;;;;;;;-0.91;100.00;99919.75;5030843;28;20034;-90
2024/01/16 08:25:48;;;;;;;6.03;1.33;;;;;;;-0.91;100.00;99914.69;5048148;28;20036;-89
2024/01/16 08:28:14;;;;;;;3.38;1.08;;;;;;;-0.90;100.00;99913.84;5049409;28;20497;-88
2024/01/16 08:30:39;;;;;;;6.25;1.48;;;;;;;-0.98;100.00;99910.59;5051738;28;20383;-89
2024/01/16 08:33:05;;;;;;;2.72;1.40;;;;;;;-1.09;100.00;99920.09;5033409;28;20043;-90
2024/01/16 08:35:30;;;;;;;2.20;1.25;;;;;;;-1.10;100.00;99898.16;5046776;28;20048;-88
2024/01/16 08:37:55;;;;;;;3.88;1.50;;;;;;;-1.12;100.00;99910.88;5052953;28;20029;-92
2024/01/16 08:40:21;;;;;;;4.43;1.20;;;;;;;-1.16;100.00;99913.47;5054927;28;20025;-92
2024/01/16 08:42:51;;;;;;;4.38;1.00;;;;;;;-1.20;100.00;99910.16;5049840;28;20025;-90
2024/01/16 08:45:17;;;;;;;4.07;0.85;;;;;;;-1.18;100.00;99905.06;5043715;28;20063;-91
2024/01/16 08:47:42;;;;;;;2.40;0.77;;;;;;;-1.27;100.00;99911.13;5045372;28;20049;-90
2024/01/16 08:50:09;;;;;;;3.75;0.93;;;;;;;-1.43;100.00;99902.16;5048074;28;20024;-91
2024/01/16 08:52:34;;;;;;;2.88;1.20;;;;;;;-1.38;100.00;99908.78;5053287;28;20224;-94
2024/01/16 08:55:00;;;;;;;2.15;1.17;;;;;;;-1.21;100.00;99905.13;5051460;28;20056;-92
2024/01/16 08:57:25;;;;;;;2.22;1.00;;;;;;;-1.11;100.00;99899.88;5049525;28;20017;-91
2024/01/16 08:59:51;;;;;;;9.30;1.25;;;;;;;-1.11;100.00;99904.94;5052523;28;20138;-91
2024/01/16 09:02:17;;;;;;;3.30;1.00;;;;;;;-1.07;100.00;99908.25;5052242;28;20025;-91
2024/01/16 09:04:42;;;;;;;3.88;0.93;;;;;;;-1.03;100.00;99904.78;5051931;28;20087;-90
2024/01/16 09:07:08;;;;;;;1.92;1.00;;;;;;;-1.04;100.00;99905.66;5048369;28;20017;-92
2024/01/16 09:09:34;;;;;;;2.28;1.20;;;;;;;-1.06;100.00;99904.84;5048633;28;20029;-91
2024/01/16 09:11:59;;;;;;;2.88;1.02;;;;;;;-1.08;100.00;99898.97;5053150;28;20025;-92
2024/01/16 09:14:25;;;;;;;1.95;0.98;;;;;;;-0.98;100.00;99897.94;5043181;28;20040;-89
2024/01/16 09:16:50;;;;;;;3.03;1.52;;;;;;;-0.95;100.00;99891.97;5049394;28;20391;-92
2024/01/16 09:19:16;;;;;;;3.17;0.95;;;;;;;-0.88;100.00;99893.53;5047957;28;20077;-91
2024/01/16 09:21:41;;;;;;;2.05;0.90;;;;;;;-0.84;100.00;99879.13;5046515;28;20045;-91
2024/01/16 09:24:07;;;;;;;5.55;1.20;;;;;;;-0.81;100.00;99884.13;5045699;28;20040;-92
2024/01/16 09:26:32;;;;;;;2.22;1.00;;;;;;;-0.80;100.00;99871.44;5049461;28;20017;-89
2024/01/16 09:28:58;;;;;;;2.05;0.90;;;;;;;-0.76;100.00;99872.19;5050746;28;20112;-89
2024/01/16 09:31:24;;;;;;;3.30;1.05;;;;;;;-0.75;100.00;99866.28;5052049;28;20029;-91
2024/01/16 09:33:50;;;;;;;1.77;0.90;;;;;;;-0.69;100.00;99866.97;5051914;28;20029;-92
2024/01/16 09:36:15;;;;;;;4.80;1.05;;;;;;;-0.62;100.00;99875.28;5050346;28;20024;-91
2024/01/16 09:38:41;;;;;;;4.32;1.58;;;;;;;-0.58;100.00;99879.44;5050149;28;20055;-91
2024/01/16 09:41:06;;;;;;;4.30;1.25;;;;;;;-0.55;100.00;99873.47;5043492;28;20033;-91
2024/01/16 09:43:33;;;;;;;1.23;0.90;;;;;;;-0.50;100.00;99869.94;5051368;28;20029;-91
2024/01/16 09:46:04;;;;;;;6.43;1.00;;;;;;;-0.39;100.00;99862.13;5044515;28;20033;-94
2024/01/16 09:48:31;;;;;;;6.53;1.42;;;;;;;-0.37;100.00;99862.06;5051591;28;20021;-92
2024/01/16 09:50:57;;;;;;;6.40;1.50;;;;;;;-0.26;100.00;99872.84;5048284;28;20066;-90
2024/01/16 09:53:22;;;;;;;5.38;1.40;;;;;;;-0.20;100.00;99865.06;5050347;28;20063;-90
2024/01/16 09:55:50;;;;;;;1.65;1.08;;;;;;;-0.13;100.00;99879.28;5054683;28;20040;-92
2024/01/16 09:58:19;;;;;;;4.72;1.10;;;;;;;-0.07;100.00;99869.00;5048067;28;20025;-92
2024/01/16 10:00:44;;;;;;;3.63;1.20;;;;;;;0.02;100.00;99865.41;5048956;28;20475;-91
2024/01/16 10:03:13;;;;;;;2.33;1.33;;;;;;;0.43;100.00;99869.47;5048466;28;20031;-91
2024/01/16 10:05:44;;;;;;;4.68;1.83;;;;;;;0.79;100.00;99861.78;5044019;28;20025;-92
2024/01/16 10:08:09;;;;;;;4.75;1.75;;;;;;;1.26;100.00;99857.09;5046107;28;20025;-91
2024/01/16 10:10:35;;;;;;;6.32;2.20;;;;;;;1.41;96.26;99855.81;5048500;28;20120;-92
2024/01/16 10:13:00;;;;;;;6.32;1.65;;;;;;;1.97;93.58;99860.09;5046236;28;20052;-89
2024/01/16 10:15:26;;;;;;;4.20;2.50;;;;;;;1.95;92.78;99856.75;5048812;28;20040;-91
2024/01/16 10:17:52;;;;;;;4.43;2.22;;;;;;;2.29;91.36;99855.66;5044991;28;20053;-91
2024/01/16 10:20:32;;;;;;;14.20;8.20;;;;;;;3.59;84.86;99850.25;5043982;28;20083;-91
2024/01/16 10:22:58;;;;;;;17.15;10.85;;;;;;;4.92;74.08;99846.50;5049262;28;20036;-91
2024/01/16 10:25:24;;;;;;;8.68;6.50;;;;;;;5.15;67.85;99845.50;5048861;28;20053;-92
2024/01/16 10:28:03;;;;;;;9.85;7.03;;;;;;;5.95;63.22;99850.38;5049660;28;20064;-93
2024/01/16 10:30:29;;;;;;;10.10;6.15;;;;;;;5.95;63.39;99850.38;5051578;28;20036;-92
2024/01/16 10:32:54;;;;;;;9.20;4.10;;;;;;;5.89;59.76;99839.56;5048438;28;20414;-93
2024/01/16 10:35:22;;;;;;;11.95;3.55;;;;;;;5.80;59.92;99833.13;5043794;28;20025;-93
2024/01/16 10:37:52;;;;;;;12.07;4.50;;;;;;;6.82;58.80;99829.81;5046419;28;20067;-92
2024/01/16 10:40:19;;;;;;;10.70;4.20;;;;;;;7.21;57.14;99826.06;5049803;28;20048;-90
2024/01/16 10:42:46;;;;;;;14.70;4.53;;;;;;;6.68;56.89;99827.13;5048366;28;20096;-91
2024/01/16 10:45:22;;;;;;;4.90;3.03;;;;;;;7.89;54.80;99818.06;5045009;28;20039;-93
2024/01/16 10:47:48;;;;;;;7.20;3.35;;;;;;;7.66;53.87;99826.25;5050314;28;20067;-92
2024/01/16 10:50:14;;;;;;;9.60;3.95;;;;;;;8.13;52.08;99818.41;5040543;28;20040;-93
2024/01/16 10:52:48;;;;;;;11.20;3.03;;;;;;;9.45;50.10;99816.63;5045831;28;20029;-92
2024/01/16 10:55:20;;;;;;;4.15;2.83;;;;;;;10.05;47.35;99816.19;5043390;28;20033;-93
2024/01/16 10:57:48;;;;;;;5.97;2.75;;;;;;;11.04;44.68;99808.69;5043741;28;20128;-92
2024/01/16 11:00:15;;;;;;;4.25;2.20;;;;;;;11.73;44.21;99803.00;5045232;28;20522;-90
2024/01/16 11:02:50;;;;;;;8.20;2.60;;;;;;;12.03;42.98;99804.31;5045775;28;20025;-92
2024/01/16 11:05:17;;;;;;;4.60;2.55;;;;;;;12.15;41.93;99805.97;5045865;28;20082;-91
2024/01/16 11:07:44;;;;;;;5.50;2.92;;;;;;;12.40;41.67;99799.78;5048795;28;20032;-91
2024/01/16 11:10:12;;;;;;;6.68;2.90;;;;;;;12.56;41.47;99800.28;5042763;28;20482;-90
2024/01/16 11:12:41;;;;;;;7.53;2.60;;;;;;;12.85;41.36;99808.41;5046658;28;20072;-95
2024/01/16 11:15:12;;;;;;;4.28;2.40;;;;;;;12.69;41.37;99800.16;5048019;28;20032;-92